LFPM 041630Z AUTO 15007KT 9999 -RA FEW029/// OVC058/// ///TCU 06/03 Q0986

Les avions qui composent notre flotte

Avion Robin DR400-180

Idéal pour les voyages, équipé d'un Pilote Automatique

F-GGJV


F-GGJV Planche